createdAt,value
2022-12-31T00:01:47.938Z,0.60
2022-12-31T00:04:14.547Z,0.53
2022-12-31T00:06:41.035Z,0.60
2022-12-31T00:09:08.312Z,0.88
2022-12-31T00:11:36.387Z,0.80
2022-12-31T00:14:03.467Z,0.90
2022-12-31T00:16:33.245Z,1.00
2022-12-31T00:19:00.721Z,1.00
2022-12-31T00:21:28.922Z,1.08
2022-12-31T00:23:55.968Z,1.13
2022-12-31T00:26:25.284Z,1.60
2022-12-31T00:28:53.977Z,1.20
2022-12-31T00:31:28.830Z,1.35
2022-12-31T00:33:56.714Z,1.40
2022-12-31T00:36:26.590Z,1.23
2022-12-31T00:38:55.355Z,1.52
2022-12-31T00:41:23.011Z,1.40
2022-12-31T00:43:50.678Z,1.20
2022-12-31T00:46:18.815Z,1.20
2022-12-31T00:48:45.834Z,1.17
2022-12-31T00:51:15.159Z,1.40
2022-12-31T00:53:42.349Z,1.00
2022-12-31T00:56:15.921Z,0.88
2022-12-31T00:58:43.294Z,0.93
2022-12-31T01:01:16.787Z,0.82
2022-12-31T01:03:43.852Z,0.88
2022-12-31T01:06:10.419Z,0.50
2022-12-31T01:08:37.215Z,0.70
2022-12-31T01:11:19.400Z,0.85
2022-12-31T01:13:50.039Z,0.75
2022-12-31T01:16:19.009Z,0.80
2022-12-31T01:18:45.679Z,0.80
2022-12-31T01:21:12.956Z,0.75
2022-12-31T01:23:40.395Z,0.73
2022-12-31T01:26:09.202Z,0.88
2022-12-31T01:28:36.478Z,0.98
2022-12-31T01:31:05.668Z,0.60
2022-12-31T01:33:32.446Z,0.73
2022-12-31T01:36:10.441Z,0.70
2022-12-31T01:38:37.013Z,0.70
2022-12-31T01:41:04.011Z,0.80
2022-12-31T01:43:42.807Z,0.80
2022-12-31T01:46:12.467Z,1.00
2022-12-31T01:48:39.134Z,0.60
2022-12-31T01:51:09.522Z,0.60
2022-12-31T01:53:40.702Z,0.77
2022-12-31T01:56:07.667Z,0.70
2022-12-31T01:58:43.218Z,0.60
2022-12-31T02:01:14.769Z,0.70
2022-12-31T02:03:41.564Z,0.90
2022-12-31T02:06:36.422Z,0.90
2022-12-31T02:09:03.262Z,0.90
2022-12-31T02:11:34.475Z,1.50
2022-12-31T02:14:05.777Z,0.95
2022-12-31T02:16:40.911Z,0.90
2022-12-31T02:19:34.474Z,0.65
2022-12-31T02:22:21.182Z,0.80
2022-12-31T02:25:08.788Z,0.98
2022-12-31T02:27:47.437Z,0.70
2022-12-31T02:30:24.898Z,0.80
2022-12-31T02:33:11.211Z,0.98
2022-12-31T02:35:51.695Z,1.00
2022-12-31T02:38:23.452Z,1.10
2022-12-31T02:40:50.481Z,0.82
2022-12-31T02:43:16.966Z,0.60
2022-12-31T02:45:48.631Z,0.73
2022-12-31T02:48:34.967Z,0.50
2022-12-31T02:51:22.589Z,0.40
2022-12-31T02:54:07.148Z,0.32
2022-12-31T02:56:55.085Z,0.30
2022-12-31T02:59:56.065Z,0.50
2022-12-31T03:02:24.471Z,0.60
2022-12-31T03:04:56.682Z,0.30
2022-12-31T03:07:32.146Z,0.40
2022-12-31T03:09:59.884Z,0.40
2022-12-31T03:12:48.557Z,0.30
2022-12-31T03:15:26.021Z,0.20
2022-12-31T03:18:04.124Z,0.30
2022-12-31T03:20:51.148Z,0.40
2022-12-31T03:23:21.971Z,0.38
2022-12-31T03:25:48.584Z,0.30
2022-12-31T03:28:18.265Z,0.33
2022-12-31T03:30:47.469Z,0.50
2022-12-31T03:33:14.771Z,0.30
2022-12-31T03:35:43.238Z,0.30
2022-12-31T03:38:09.750Z,0.38
2022-12-31T03:40:42.676Z,0.30
2022-12-31T03:43:09.605Z,0.35
2022-12-31T03:45:37.221Z,0.40
2022-12-31T03:48:05.827Z,0.30
2022-12-31T03:50:32.915Z,0.47
2022-12-31T03:52:59.627Z,0.40
2022-12-31T03:55:26.272Z,0.55
2022-12-31T03:57:53.068Z,0.30
2022-12-31T04:00:21.619Z,0.50
2022-12-31T04:02:48.782Z,0.30
2022-12-31T04:05:16.953Z,0.37
2022-12-31T04:07:43.708Z,0.30
2022-12-31T04:10:13.253Z,0.30
2022-12-31T04:12:40.300Z,0.28
2022-12-31T04:15:08.420Z,0.30
2022-12-31T04:17:34.945Z,0.30
2022-12-31T04:20:01.755Z,0.30
2022-12-31T04:22:28.212Z,0.35
2022-12-31T04:24:54.716Z,0.50
2022-12-31T04:27:21.235Z,0.50
2022-12-31T04:29:47.740Z,0.60
2022-12-31T04:32:14.223Z,0.50
2022-12-31T04:34:40.748Z,0.80
2022-12-31T04:37:07.251Z,0.65
2022-12-31T04:39:33.737Z,0.50
2022-12-31T04:42:00.256Z,0.40
2022-12-31T04:44:26.797Z,0.75
2022-12-31T04:46:53.477Z,0.75
2022-12-31T04:49:20.068Z,0.85
2022-12-31T04:51:46.506Z,1.00
2022-12-31T04:54:12.991Z,0.87
2022-12-31T04:56:39.571Z,0.60
2022-12-31T04:59:07.177Z,0.88
2022-12-31T05:01:33.828Z,0.70
2022-12-31T05:04:00.422Z,0.82
2022-12-31T05:06:27.079Z,0.60
2022-12-31T05:08:53.637Z,1.10
2022-12-31T05:11:20.213Z,0.93
2022-12-31T05:13:46.684Z,0.90
2022-12-31T05:16:13.448Z,0.85
2022-12-31T05:18:40.015Z,1.03
2022-12-31T05:21:07.081Z,0.93
2022-12-31T05:23:33.760Z,0.85
2022-12-31T05:26:00.409Z,0.80
2022-12-31T05:28:26.955Z,1.10
2022-12-31T05:30:53.650Z,0.70
2022-12-31T05:33:20.678Z,0.50
2022-12-31T05:35:47.353Z,0.70
2022-12-31T05:38:14.054Z,0.60
2022-12-31T05:40:40.593Z,0.60
2022-12-31T05:43:07.471Z,0.60
2022-12-31T05:45:34.072Z,0.50
2022-12-31T05:48:00.626Z,0.70
2022-12-31T05:50:27.131Z,0.60
2022-12-31T05:52:53.657Z,0.80
2022-12-31T05:55:20.177Z,0.83
2022-12-31T05:57:46.699Z,0.88
2022-12-31T06:00:13.941Z,0.80
2022-12-31T06:02:40.838Z,0.90
2022-12-31T06:05:08.019Z,0.68
2022-12-31T06:07:34.727Z,0.70
2022-12-31T06:10:01.334Z,0.60
2022-12-31T06:12:27.949Z,0.50
2022-12-31T06:14:54.409Z,0.40
2022-12-31T06:17:22.418Z,0.50
2022-12-31T06:19:49.302Z,0.57
2022-12-31T06:22:15.988Z,0.60
2022-12-31T06:24:42.610Z,0.70
2022-12-31T06:27:09.535Z,0.70
2022-12-31T06:29:36.186Z,0.77
2022-12-31T06:32:02.728Z,0.97
2022-12-31T06:34:29.238Z,1.08
2022-12-31T06:36:55.783Z,1.02
2022-12-31T06:39:22.216Z,1.02
2022-12-31T06:41:48.757Z,1.00
2022-12-31T06:44:15.381Z,1.13
2022-12-31T06:46:42.829Z,0.90
2022-12-31T06:49:09.426Z,1.00
2022-12-31T06:51:35.941Z,1.35
2022-12-31T06:54:02.502Z,1.67
2022-12-31T06:56:34.345Z,1.43
2022-12-31T06:59:02.596Z,1.40
2022-12-31T07:01:58.005Z,1.90
2022-12-31T07:04:50.700Z,1.17
2022-12-31T07:07:24.850Z,1.25
2022-12-31T07:10:28.996Z,1.13
2022-12-31T07:13:06.618Z,0.98
2022-12-31T07:15:47.335Z,0.93
2022-12-31T07:18:17.115Z,0.65
2022-12-31T07:20:43.794Z,0.55
2022-12-31T07:23:10.591Z,0.40
2022-12-31T07:25:44.040Z,0.30
2022-12-31T07:28:18.352Z,0.30
2022-12-31T07:31:06.840Z,0.30
2022-12-31T07:33:48.508Z,0.20
2022-12-31T07:36:39.976Z,0.20
2022-12-31T07:39:12.861Z,0.20
2022-12-31T07:42:29.982Z,0.20
2022-12-31T07:45:31.753Z,0.10
2022-12-31T07:48:02.447Z,0.20
2022-12-31T07:50:29.908Z,0.17
2022-12-31T07:52:56.643Z,0.10
2022-12-31T07:55:23.157Z,0.20
2022-12-31T07:58:03.287Z,0.10
2022-12-31T08:00:31.215Z,0.28
2022-12-31T08:03:17.348Z,0.20
2022-12-31T08:06:05.678Z,0.20
2022-12-31T08:08:40.916Z,0.20
2022-12-31T08:11:18.884Z,0.20
2022-12-31T08:13:45.879Z,0.20
2022-12-31T08:16:14.584Z,0.20
2022-12-31T08:18:41.345Z,0.30
2022-12-31T08:21:43.270Z,0.30
2022-12-31T08:24:35.770Z,0.20
2022-12-31T08:27:11.065Z,0.20
2022-12-31T08:29:58.508Z,0.20
2022-12-31T08:32:40.038Z,0.30
2022-12-31T08:35:14.828Z,0.40
2022-12-31T08:38:13.603Z,0.20
2022-12-31T08:41:05.900Z,0.30
2022-12-31T08:43:50.116Z,0.20
2022-12-31T08:46:25.518Z,0.20
2022-12-31T08:48:52.138Z,0.20
2022-12-31T08:51:24.006Z,0.20
2022-12-31T08:53:51.259Z,0.47
2022-12-31T08:56:27.885Z,0.20
2022-12-31T08:59:20.121Z,0.30
2022-12-31T09:02:24.231Z,0.35
2022-12-31T09:05:11.911Z,0.30
2022-12-31T09:07:46.442Z,0.20
2022-12-31T09:10:51.188Z,0.30
2022-12-31T09:13:29.931Z,0.20
2022-12-31T09:16:19.411Z,0.40
2022-12-31T09:18:45.998Z,0.20
2022-12-31T09:21:15.492Z,0.30
2022-12-31T09:23:42.226Z,0.30
2022-12-31T09:26:14.537Z,0.32
2022-12-31T09:28:59.608Z,0.30
2022-12-31T09:31:49.753Z,0.30
2022-12-31T09:34:27.286Z,0.30
2022-12-31T09:37:06.647Z,0.30
2022-12-31T09:39:41.299Z,0.40
2022-12-31T09:42:29.561Z,0.40
2022-12-31T09:45:09.058Z,0.40
2022-12-31T09:48:10.734Z,0.63
2022-12-31T09:50:52.670Z,0.80
2022-12-31T09:53:40.951Z,0.65
2022-12-31T09:56:12.793Z,0.60
2022-12-31T09:58:44.873Z,0.90
2022-12-31T10:01:45.411Z,0.85
2022-12-31T10:04:32.486Z,0.40
2022-12-31T10:07:09.238Z,0.60
2022-12-31T10:09:54.025Z,0.50
2022-12-31T10:12:58.666Z,0.50
2022-12-31T10:15:47.066Z,0.40
2022-12-31T10:18:28.685Z,0.40
2022-12-31T10:21:24.201Z,0.50
2022-12-31T10:24:09.066Z,0.40
2022-12-31T10:27:04.754Z,0.40
2022-12-31T10:29:47.269Z,0.30
2022-12-31T10:32:42.035Z,0.60
2022-12-31T10:35:28.719Z,0.40
2022-12-31T10:38:13.367Z,0.60
2022-12-31T10:41:01.673Z,0.45
2022-12-31T10:43:51.318Z,0.52
2022-12-31T10:46:44.075Z,0.50
2022-12-31T10:49:16.393Z,0.50
2022-12-31T10:51:53.885Z,0.40
2022-12-31T10:54:53.202Z,0.43
2022-12-31T10:58:07.281Z,0.68
2022-12-31T11:01:08.429Z,0.63
2022-12-31T11:04:01.441Z,0.98
2022-12-31T11:06:47.119Z,0.68
2022-12-31T11:09:41.455Z,0.57
2022-12-31T11:12:20.153Z,0.40
2022-12-31T11:14:49.683Z,0.50
2022-12-31T11:17:34.406Z,0.52
2022-12-31T11:20:28.503Z,0.95
2022-12-31T11:23:21.657Z,1.00
2022-12-31T11:26:09.823Z,0.65
2022-12-31T11:28:48.337Z,0.93
2022-12-31T11:31:29.028Z,0.73
2022-12-31T11:34:25.597Z,0.60
2022-12-31T11:36:54.786Z,0.82
2022-12-31T11:39:38.663Z,1.00
2022-12-31T11:42:23.542Z,0.90
2022-12-31T11:45:27.275Z,0.95
2022-12-31T11:48:30.030Z,0.70
2022-12-31T11:51:00.078Z,0.70
2022-12-31T11:53:38.838Z,0.60
2022-12-31T11:56:18.848Z,0.60
2022-12-31T11:58:49.392Z,0.60
2022-12-31T12:01:22.087Z,0.70
2022-12-31T12:03:48.694Z,0.60
2022-12-31T12:06:19.829Z,0.75
2022-12-31T12:08:47.660Z,0.40
2022-12-31T12:11:20.532Z,1.00
2022-12-31T12:13:47.572Z,0.70
2022-12-31T12:16:15.208Z,0.52
2022-12-31T12:18:51.007Z,0.68
2022-12-31T12:21:21.179Z,0.50
2022-12-31T12:24:19.117Z,0.75
2022-12-31T12:26:45.666Z,0.73
2022-12-31T12:29:15.242Z,0.60
2022-12-31T12:31:42.573Z,0.70
2022-12-31T12:34:49.381Z,1.00
2022-12-31T12:37:34.487Z,1.00
2022-12-31T12:40:09.378Z,1.00
2022-12-31T12:42:35.976Z,0.98
2022-12-31T12:45:17.847Z,1.00
2022-12-31T12:47:48.247Z,0.70
2022-12-31T12:50:21.371Z,0.73
2022-12-31T12:53:23.583Z,0.70
2022-12-31T12:56:30.577Z,0.70
2022-12-31T12:59:36.448Z,0.60
2022-12-31T13:02:30.520Z,0.90
2022-12-31T13:05:18.152Z,1.13
2022-12-31T13:07:59.799Z,0.68
2022-12-31T13:10:49.211Z,0.70
2022-12-31T13:13:25.247Z,0.80
2022-12-31T13:16:30.307Z,0.53
2022-12-31T13:19:15.077Z,1.08
2022-12-31T13:21:58.916Z,1.20
2022-12-31T13:24:47.085Z,1.00
2022-12-31T13:27:42.397Z,1.20
2022-12-31T13:30:30.230Z,0.60
2022-12-31T13:33:07.393Z,0.70
2022-12-31T13:35:44.493Z,0.95
2022-12-31T13:38:22.258Z,1.17
2022-12-31T13:40:57.949Z,1.00
2022-12-31T13:43:51.093Z,0.90
2022-12-31T13:46:55.183Z,0.70
2022-12-31T13:49:24.519Z,0.80
2022-12-31T13:52:18.721Z,0.88
2022-12-31T13:55:13.266Z,0.93
2022-12-31T13:57:48.042Z,0.90
2022-12-31T14:00:20.684Z,0.80
2022-12-31T14:02:56.042Z,0.80
2022-12-31T14:05:30.941Z,0.70
2022-12-31T14:08:00.473Z,0.60
2022-12-31T14:10:54.619Z,0.50
2022-12-31T14:13:34.614Z,0.80
2022-12-31T14:16:13.424Z,0.90
2022-12-31T14:19:06.200Z,0.75
2022-12-31T14:21:44.121Z,0.70
2022-12-31T14:24:20.418Z,0.80
2022-12-31T14:26:52.954Z,0.80
2022-12-31T14:29:34.834Z,0.73
2022-12-31T14:32:25.947Z,1.25
2022-12-31T14:35:17.373Z,1.20
2022-12-31T14:37:53.298Z,0.70
2022-12-31T14:40:32.242Z,0.80
2022-12-31T14:43:16.613Z,1.20
2022-12-31T14:46:10.775Z,0.73
2022-12-31T14:48:56.280Z,0.80
2022-12-31T14:51:28.530Z,0.60
2022-12-31T14:53:57.127Z,0.73
2022-12-31T14:56:44.577Z,0.82
2022-12-31T14:59:50.744Z,0.80
2022-12-31T15:02:32.601Z,0.70
2022-12-31T15:05:16.323Z,1.23
2022-12-31T15:08:14.198Z,0.70
2022-12-31T15:11:08.709Z,1.20
2022-12-31T15:13:54.274Z,1.17
2022-12-31T15:16:23.469Z,1.20
2022-12-31T15:18:55.867Z,1.00
2022-12-31T15:21:25.413Z,1.33
2022-12-31T15:23:51.964Z,1.00
2022-12-31T15:26:32.285Z,1.35
2022-12-31T15:29:02.703Z,1.48
2022-12-31T15:31:30.452Z,1.20
2022-12-31T15:34:03.241Z,1.20
2022-12-31T15:36:32.820Z,1.20
2022-12-31T15:39:11.626Z,1.25
2022-12-31T15:42:03.088Z,1.35
2022-12-31T15:44:48.554Z,1.40
2022-12-31T15:47:27.096Z,1.55
2022-12-31T15:49:55.177Z,1.25
2022-12-31T15:52:33.276Z,1.40
2022-12-31T15:55:00.432Z,1.60
2022-12-31T15:57:41.433Z,1.77
2022-12-31T16:00:17.293Z,1.75
2022-12-31T16:02:45.262Z,1.33
2022-12-31T16:05:19.344Z,1.20
2022-12-31T16:07:46.336Z,1.30
2022-12-31T16:10:21.514Z,1.70
2022-12-31T16:12:49.316Z,1.38
2022-12-31T16:15:25.062Z,1.60
2022-12-31T16:18:23.255Z,1.25
2022-12-31T16:20:51.806Z,1.60
2022-12-31T16:23:25.228Z,1.63
2022-12-31T16:25:55.748Z,2.30
2022-12-31T16:28:28.139Z,1.30
2022-12-31T16:31:05.470Z,1.13
2022-12-31T16:33:32.380Z,1.50
2022-12-31T16:36:01.311Z,1.40
2022-12-31T16:38:33.646Z,1.60
2022-12-31T16:41:03.157Z,1.80
2022-12-31T16:43:31.045Z,1.85
2022-12-31T16:46:07.400Z,1.90
2022-12-31T16:48:34.215Z,1.57
2022-12-31T16:51:03.018Z,2.15
2022-12-31T16:53:34.171Z,2.47
2022-12-31T16:56:04.735Z,1.75
2022-12-31T16:58:42.669Z,1.60
2022-12-31T17:01:12.255Z,1.90
2022-12-31T17:03:44.072Z,2.55
2022-12-31T17:06:16.779Z,3.08
2022-12-31T17:08:55.668Z,3.40
2022-12-31T17:11:30.681Z,3.45
2022-12-31T17:14:06.704Z,4.50
2022-12-31T17:16:35.302Z,3.97
2022-12-31T17:19:02.466Z,2.70
2022-12-31T17:21:31.557Z,2.83
2022-12-31T17:24:04.869Z,3.10
2022-12-31T17:26:34.842Z,6.07
2022-12-31T17:29:03.032Z,3.97
2022-12-31T17:31:40.741Z,3.10
2022-12-31T17:34:13.475Z,3.40
2022-12-31T17:37:11.665Z,3.63
2022-12-31T17:39:53.542Z,3.47
2022-12-31T17:42:26.059Z,3.30
2022-12-31T17:44:57.630Z,3.05
2022-12-31T17:47:25.077Z,2.67
2022-12-31T17:49:53.468Z,3.15
2022-12-31T17:52:19.963Z,2.70
2022-12-31T17:54:46.551Z,3.03
2022-12-31T17:57:26.302Z,2.83
2022-12-31T17:59:53.153Z,3.50
2022-12-31T18:02:19.978Z,4.25
2022-12-31T18:04:46.625Z,10.20
2022-12-31T18:07:13.186Z,3.40
2022-12-31T18:09:39.724Z,2.55
2022-12-31T18:12:07.197Z,3.28
2022-12-31T18:14:34.185Z,3.90
2022-12-31T18:17:00.908Z,2.20
2022-12-31T18:22:16.460Z,2.60
2022-12-31T18:24:44.143Z,3.20
2022-12-31T18:27:18.130Z,3.45
2022-12-31T18:29:45.150Z,2.80
2022-12-31T18:32:23.149Z,2.47
2022-12-31T18:34:50.346Z,2.92
2022-12-31T18:37:22.047Z,2.20
2022-12-31T18:39:48.959Z,3.70
2022-12-31T18:42:18.324Z,2.90
2022-12-31T18:44:45.995Z,3.00
2022-12-31T18:47:17.447Z,3.15
2022-12-31T18:49:48.612Z,2.67
2022-12-31T18:52:17.527Z,2.47
2022-12-31T18:54:44.098Z,2.10
2022-12-31T18:57:12.217Z,2.40
2022-12-31T18:59:39.047Z,2.50
2022-12-31T19:02:14.460Z,2.85
2022-12-31T19:04:41.012Z,2.70
2022-12-31T19:07:07.489Z,1.60
2022-12-31T19:09:54.661Z,2.05
2022-12-31T19:12:21.329Z,2.42
2022-12-31T19:14:47.821Z,3.25
2022-12-31T19:17:14.450Z,1.90
2022-12-31T19:19:40.923Z,2.20
2022-12-31T19:22:14.521Z,2.72
2022-12-31T19:24:41.013Z,2.83
2022-12-31T19:27:09.550Z,2.45
2022-12-31T19:29:36.170Z,2.05
2022-12-31T19:32:02.767Z,1.90
2022-12-31T19:34:29.298Z,3.33
2022-12-31T19:36:55.895Z,2.78
2022-12-31T19:39:22.389Z,2.20
2022-12-31T19:41:54.767Z,2.63
2022-12-31T19:44:24.777Z,2.70
2022-12-31T19:46:51.264Z,2.05
2022-12-31T19:49:17.794Z,2.22
2022-12-31T19:51:44.311Z,2.58
2022-12-31T19:54:13.222Z,1.65
2022-12-31T19:56:39.982Z,2.50
2022-12-31T19:59:08.057Z,1.90
2022-12-31T20:01:34.640Z,2.65
2022-12-31T20:04:01.389Z,2.67
2022-12-31T20:06:28.110Z,2.38
2022-12-31T20:08:54.631Z,2.43
2022-12-31T20:11:23.208Z,2.90
2022-12-31T20:13:52.223Z,2.55
2022-12-31T20:16:20.723Z,2.42
2022-12-31T20:18:47.882Z,1.98
2022-12-31T20:21:20.168Z,1.90
2022-12-31T20:23:47.779Z,2.60
2022-12-31T20:26:14.468Z,2.72
2022-12-31T20:28:40.913Z,2.10
2022-12-31T20:31:12.885Z,2.33
2022-12-31T20:33:39.803Z,2.40
2022-12-31T20:36:08.612Z,2.15
2022-12-31T20:38:35.762Z,2.20
2022-12-31T20:41:08.295Z,2.60
2022-12-31T20:43:36.203Z,2.40
2022-12-31T20:46:12.588Z,2.30
2022-12-31T20:48:41.474Z,1.80
2022-12-31T20:51:08.552Z,1.98
2022-12-31T20:53:35.149Z,2.42
2022-12-31T20:56:06.179Z,2.40
2022-12-31T20:58:33.382Z,2.13
2022-12-31T21:01:00.147Z,2.65
2022-12-31T21:04:02.935Z,2.20
2022-12-31T21:06:13.859Z,2.70
2022-12-31T21:08:40.473Z,3.90
2022-12-31T21:11:27.886Z,4.10
2022-12-31T21:13:55.708Z,4.38
2022-12-31T21:16:22.568Z,4.35
2022-12-31T21:18:49.125Z,4.55
2022-12-31T21:21:15.787Z,3.80
2022-12-31T21:23:42.416Z,3.60
2022-12-31T21:26:08.901Z,2.97
2022-12-31T21:28:35.383Z,2.45
2022-12-31T21:31:04.354Z,3.38
2022-12-31T21:33:31.396Z,3.05
2022-12-31T21:36:04.086Z,4.30
2022-12-31T21:38:31.319Z,4.40
2022-12-31T21:41:02.835Z,4.30
2022-12-31T21:43:29.516Z,4.22
2022-12-31T21:46:06.959Z,3.60
2022-12-31T21:48:34.446Z,4.60
2022-12-31T21:51:09.911Z,4.97
2022-12-31T21:53:37.496Z,4.95
2022-12-31T21:56:08.220Z,4.20
2022-12-31T21:58:36.589Z,4.03
2022-12-31T22:01:21.887Z,3.93
2022-12-31T22:03:48.536Z,3.72
2022-12-31T22:06:20.603Z,3.53
2022-12-31T22:08:53.141Z,3.53
2022-12-31T22:11:22.429Z,3.10
2022-12-31T22:13:49.513Z,2.77
2022-12-31T22:16:17.200Z,2.50
2022-12-31T22:18:44.255Z,2.72
2022-12-31T22:21:21.129Z,2.95
2022-12-31T22:23:49.763Z,2.92
2022-12-31T22:26:17.864Z,3.80
2022-12-31T22:28:45.905Z,2.95
2022-12-31T22:31:21.378Z,2.65
2022-12-31T22:33:48.557Z,2.38
2022-12-31T22:36:18.741Z,2.15
2022-12-31T22:38:45.781Z,2.80
2022-12-31T22:41:19.992Z,3.25
2022-12-31T22:43:48.727Z,3.47
2022-12-31T22:46:21.181Z,2.47
2022-12-31T22:48:48.291Z,3.33
2022-12-31T22:51:15.800Z,2.50
2022-12-31T22:53:43.511Z,2.08
2022-12-31T22:56:12.242Z,2.17
2022-12-31T22:58:39.071Z,3.03
2022-12-31T23:01:22.206Z,2.30
2022-12-31T23:03:51.630Z,2.20
2022-12-31T23:06:19.254Z,3.10
2022-12-31T23:09:05.801Z,2.58
2022-12-31T23:11:34.090Z,5.20
2022-12-31T23:14:19.789Z,2.20
2022-12-31T23:17:30.279Z,3.30
2022-12-31T23:20:09.906Z,2.83
2022-12-31T23:22:54.963Z,2.20
2022-12-31T23:25:21.573Z,2.42
2022-12-31T23:27:48.021Z,2.60
2022-12-31T23:30:14.679Z,2.77
2022-12-31T23:32:41.188Z,3.90
2022-12-31T23:35:10.063Z,3.80
2022-12-31T23:37:36.821Z,4.30
2022-12-31T23:40:03.722Z,4.43
2022-12-31T23:42:30.154Z,5.50
2022-12-31T23:44:56.600Z,5.90
2022-12-31T23:47:23.189Z,6.90
2022-12-31T23:49:49.630Z,6.95
2022-12-31T23:52:16.157Z,7.88
2022-12-31T23:54:42.669Z,8.87
2022-12-31T23:57:09.175Z,9.85
2022-12-31T23:59:35.655Z,9.82
